createdAt,value
2024-02-24T00:01:42.486Z,76.06
2024-02-24T00:04:14.833Z,76.03
2024-02-24T00:06:48.668Z,76.00
2024-02-24T00:09:21.599Z,75.84
2024-02-24T00:11:54.776Z,75.85
2024-02-24T00:14:28.057Z,75.92
2024-02-24T00:17:00.718Z,76.12
2024-02-24T00:19:33.461Z,76.21
2024-02-24T00:22:06.116Z,76.31
2024-02-24T00:24:38.850Z,76.46
2024-02-24T00:27:11.742Z,76.51
2024-02-24T00:29:44.954Z,76.54
2024-02-24T00:32:18.205Z,76.35
2024-02-24T00:34:50.727Z,76.30
2024-02-24T00:37:23.264Z,76.01
2024-02-24T00:39:56.795Z,76.18
2024-02-24T00:42:29.350Z,76.45
2024-02-24T00:45:01.745Z,76.64
2024-02-24T00:47:34.446Z,76.53
2024-02-24T00:50:07.195Z,76.61
2024-02-24T00:52:39.676Z,76.68
2024-02-24T00:55:12.273Z,76.93
2024-02-24T00:57:44.354Z,76.92
2024-02-24T01:00:17.344Z,77.16
2024-02-24T01:02:49.928Z,77.06
2024-02-24T01:05:22.292Z,77.29
2024-02-24T01:07:56.350Z,77.42
2024-02-24T01:10:29.051Z,77.57
2024-02-24T01:13:02.389Z,77.58
2024-02-24T01:15:35.568Z,77.54
2024-02-24T01:18:07.923Z,77.60
2024-02-24T01:20:40.346Z,77.65
2024-02-24T01:23:12.600Z,77.63
2024-02-24T01:25:47.071Z,77.64
2024-02-24T01:28:19.913Z,77.61
2024-02-24T01:30:52.532Z,77.46
2024-02-24T01:33:25.051Z,77.45
2024-02-24T01:35:57.815Z,77.58
2024-02-24T01:38:30.286Z,77.77
2024-02-24T01:41:02.800Z,77.65
2024-02-24T01:43:36.707Z,77.68
2024-02-24T01:46:12.084Z,77.63
2024-02-24T01:48:45.087Z,77.24
2024-02-24T01:51:18.333Z,77.25
2024-02-24T01:53:51.190Z,77.25
2024-02-24T01:56:26.995Z,77.25
2024-02-24T01:58:59.236Z,77.14
2024-02-24T02:01:31.986Z,77.24
2024-02-24T02:04:04.979Z,76.99
2024-02-24T02:06:38.429Z,77.14
2024-02-24T02:09:10.722Z,77.19
2024-02-24T02:11:51.725Z,77.37
2024-02-24T02:14:17.617Z,77.26
2024-02-24T02:16:50.771Z,76.99
2024-02-24T02:19:23.897Z,76.67
2024-02-24T02:21:59.510Z,76.80
2024-02-24T02:24:32.351Z,76.67
2024-02-24T02:27:06.972Z,76.56
2024-02-24T02:29:40.423Z,76.45
2024-02-24T02:32:12.896Z,76.55
2024-02-24T02:34:45.112Z,76.48
2024-02-24T02:37:17.399Z,76.48
2024-02-24T02:39:50.393Z,76.33
2024-02-24T02:42:23.020Z,76.28
2024-02-24T02:44:55.436Z,75.93
2024-02-24T02:47:28.203Z,75.96
2024-02-24T02:50:01.774Z,76.02
2024-02-24T02:52:34.250Z,75.79
2024-02-24T02:55:07.152Z,75.64
2024-02-24T02:57:39.840Z,76.01
2024-02-24T03:00:13.054Z,75.96
2024-02-24T03:02:46.014Z,75.56
2024-02-24T03:05:18.783Z,75.69
2024-02-24T03:07:50.941Z,75.47
2024-02-24T03:10:23.313Z,75.54
2024-02-24T03:12:55.836Z,75.64
2024-02-24T03:15:28.639Z,75.61
2024-02-24T03:18:01.316Z,75.81
2024-02-24T03:20:34.182Z,75.74
2024-02-24T03:23:07.876Z,75.45
2024-02-24T03:25:40.920Z,75.61
2024-02-24T03:28:13.552Z,75.62
2024-02-24T03:30:46.381Z,75.79
2024-02-24T03:33:19.532Z,75.82
2024-02-24T03:35:52.285Z,75.85
2024-02-24T03:38:24.998Z,75.69
2024-02-24T03:40:57.160Z,75.78
2024-02-24T03:43:29.480Z,75.35
2024-02-24T03:46:02.463Z,75.64
2024-02-24T03:48:35.588Z,75.62
2024-02-24T03:51:07.840Z,75.48
2024-02-24T03:53:40.086Z,75.53
2024-02-24T03:56:12.699Z,75.63
2024-02-24T03:58:45.696Z,75.11
2024-02-24T04:01:18.504Z,75.50
2024-02-24T04:03:52.833Z,75.48
2024-02-24T04:06:25.582Z,75.51
2024-02-24T04:08:57.834Z,75.53
2024-02-24T04:11:30.528Z,75.67
2024-02-24T04:14:03.103Z,75.55
2024-02-24T04:16:35.657Z,75.76
2024-02-24T04:19:08.361Z,75.59
2024-02-24T04:21:41.501Z,75.45
2024-02-24T04:24:14.295Z,75.19
2024-02-24T04:26:46.834Z,75.37
2024-02-24T04:29:19.091Z,75.33
2024-02-24T04:31:52.005Z,75.51
2024-02-24T04:34:25.121Z,75.62
2024-02-24T04:36:57.605Z,75.87
2024-02-24T04:39:30.496Z,75.66
2024-02-24T04:42:04.482Z,75.75
2024-02-24T04:44:37.580Z,76.06
2024-02-24T04:47:09.948Z,75.41
2024-02-24T04:49:43.009Z,75.52
2024-02-24T04:52:16.112Z,76.01
2024-02-24T04:54:48.498Z,76.22
2024-02-24T04:57:20.896Z,76.25
2024-02-24T04:59:53.747Z,76.01
2024-02-24T05:02:26.361Z,76.35
2024-02-24T05:04:59.083Z,76.04
2024-02-24T05:07:32.862Z,75.96
2024-02-24T05:10:22.838Z,75.98
2024-02-24T05:12:56.493Z,76.20
2024-02-24T05:15:28.900Z,76.17
2024-02-24T05:18:01.353Z,75.91
2024-02-24T05:20:34.676Z,76.15
2024-02-24T05:23:08.494Z,76.16
2024-02-24T05:25:41.493Z,76.21
2024-02-24T05:28:14.205Z,76.30
2024-02-24T05:30:48.923Z,76.13
2024-02-24T05:33:22.755Z,75.95
2024-02-24T05:35:56.150Z,75.71
2024-02-24T05:38:29.907Z,75.78
2024-02-24T05:41:03.408Z,75.47
2024-02-24T05:43:37.384Z,75.45
2024-02-24T05:46:10.746Z,75.34
2024-02-24T05:49:01.116Z,75.26
2024-02-24T05:51:34.062Z,75.35
2024-02-24T05:54:07.438Z,75.27
2024-02-24T05:56:41.852Z,75.11
2024-02-24T05:59:15.802Z,75.14
2024-02-24T06:01:48.709Z,75.19
2024-02-24T06:04:21.261Z,75.16
2024-02-24T06:06:53.677Z,75.04
2024-02-24T06:09:26.955Z,75.14
2024-02-24T06:11:59.682Z,75.13
2024-02-24T06:14:32.869Z,75.31
2024-02-24T06:17:05.283Z,75.18
2024-02-24T06:19:39.452Z,74.68
2024-02-24T06:22:12.641Z,74.47
2024-02-24T06:24:45.631Z,74.10
2024-02-24T06:27:18.263Z,74.27
2024-02-24T06:29:51.090Z,74.14
2024-02-24T06:32:24.067Z,74.24
2024-02-24T06:34:57.023Z,74.33
2024-02-24T06:37:29.416Z,74.47
2024-02-24T06:40:02.343Z,74.22
2024-02-24T06:42:34.782Z,74.24
2024-02-24T06:45:08.620Z,74.71
2024-02-24T06:47:41.672Z,74.17
2024-02-24T06:50:14.314Z,73.81
2024-02-24T06:52:47.344Z,73.36
2024-02-24T06:55:20.480Z,72.59
2024-02-24T06:57:53.458Z,73.15
2024-02-24T07:00:26.890Z,73.16
2024-02-24T07:03:00.344Z,73.06
2024-02-24T07:05:33.770Z,72.99
2024-02-24T07:08:07.273Z,73.00
2024-02-24T07:10:40.534Z,72.73
2024-02-24T07:13:12.971Z,72.64
2024-02-24T07:15:45.528Z,72.74
2024-02-24T07:18:18.685Z,72.81
2024-02-24T07:20:52.388Z,72.27
2024-02-24T07:23:25.251Z,72.06
2024-02-24T07:25:59.163Z,72.35
2024-02-24T07:28:32.656Z,72.21
2024-02-24T07:31:06.419Z,72.51
2024-02-24T07:33:39.759Z,72.29
2024-02-24T07:36:13.648Z,72.18
2024-02-24T07:38:46.607Z,71.93
2024-02-24T07:41:20.106Z,71.77
2024-02-24T07:43:53.732Z,71.59
2024-02-24T07:46:31.514Z,71.58
2024-02-24T07:49:05.252Z,71.44
2024-02-24T07:51:40.705Z,71.65
2024-02-24T07:54:14.328Z,71.92
2024-02-24T07:56:47.184Z,71.55
2024-02-24T07:59:19.731Z,71.42
2024-02-24T08:01:53.161Z,71.35
2024-02-24T08:04:25.684Z,71.19
2024-02-24T08:06:58.082Z,71.18
2024-02-24T08:09:31.651Z,71.20
2024-02-24T08:12:04.643Z,70.96
2024-02-24T08:14:40.150Z,71.10
2024-02-24T08:17:13.635Z,70.84
2024-02-24T08:19:46.782Z,71.12
2024-02-24T08:22:19.707Z,70.87
2024-02-24T08:25:10.995Z,70.60
2024-02-24T08:27:43.462Z,70.85
2024-02-24T08:30:16.971Z,71.07
2024-02-24T08:32:51.315Z,71.01
2024-02-24T08:35:25.141Z,70.76
2024-02-24T08:37:57.611Z,70.29
2024-02-24T08:40:30.158Z,70.19
2024-02-24T08:43:02.795Z,70.73
2024-02-24T08:45:35.619Z,70.43
2024-02-24T08:48:09.366Z,70.63
2024-02-24T08:50:44.046Z,70.64
2024-02-24T08:53:17.517Z,70.67
2024-02-24T08:55:50.994Z,70.19
2024-02-24T08:58:23.436Z,70.28
2024-02-24T09:00:57.810Z,70.78
2024-02-24T09:03:30.553Z,70.84
2024-02-24T09:06:03.470Z,70.64
2024-02-24T09:08:36.473Z,70.96
2024-02-24T09:11:09.848Z,70.51
2024-02-24T09:13:44.570Z,70.20
2024-02-24T09:16:19.143Z,72.10
2024-02-24T09:18:54.915Z,71.24
2024-02-24T09:21:30.098Z,70.58
2024-02-24T09:24:04.590Z,70.36
2024-02-24T09:26:38.443Z,70.42
2024-02-24T09:29:12.412Z,70.20
2024-02-24T09:31:45.811Z,70.06
2024-02-24T09:34:20.839Z,69.81
2024-02-24T09:36:55.526Z,69.12
2024-02-24T09:39:28.596Z,69.01
2024-02-24T09:42:02.425Z,68.68
2024-02-24T09:44:35.087Z,68.29
2024-02-24T09:47:10.698Z,68.34
2024-02-24T09:49:44.655Z,68.26
2024-02-24T09:52:18.487Z,68.50
2024-02-24T09:54:50.959Z,69.33
2024-02-24T09:57:27.421Z,68.45
2024-02-24T10:00:01.493Z,67.87
2024-02-24T10:02:36.177Z,67.61
2024-02-24T10:05:09.955Z,67.40
2024-02-24T10:07:43.430Z,67.78
2024-02-24T10:10:18.164Z,67.61
2024-02-24T10:13:04.038Z,67.42
2024-02-24T10:15:38.274Z,67.44
2024-02-24T10:18:09.941Z,67.89
2024-02-24T10:20:42.752Z,67.71
2024-02-24T10:23:15.524Z,67.10
2024-02-24T10:25:49.757Z,67.17
2024-02-24T10:28:22.433Z,67.54
2024-02-24T10:30:56.205Z,67.59
2024-02-24T10:33:33.313Z,67.17
2024-02-24T10:36:06.854Z,67.70
2024-02-24T10:38:48.083Z,67.46
2024-02-24T10:41:18.842Z,67.21
2024-02-24T10:44:01.754Z,67.04
2024-02-24T10:46:29.260Z,67.57
2024-02-24T10:49:04.881Z,68.20
2024-02-24T10:51:38.461Z,68.16
2024-02-24T10:54:16.601Z,67.45
2024-02-24T10:56:52.418Z,67.46
2024-02-24T10:59:30.217Z,67.53
2024-02-24T11:02:05.438Z,68.20
2024-02-24T11:04:44.040Z,67.95
2024-02-24T11:07:22.181Z,67.83
2024-02-24T11:09:56.739Z,67.92
2024-02-24T11:12:32.441Z,68.54
2024-02-24T11:15:07.246Z,68.37
2024-02-24T11:17:53.457Z,68.59
2024-02-24T11:20:45.180Z,68.26
2024-02-24T11:23:26.130Z,68.26
2024-02-24T11:26:21.495Z,68.98
2024-02-24T11:29:03.842Z,68.62
2024-02-24T11:31:38.536Z,68.73
2024-02-24T11:34:12.857Z,67.67
2024-02-24T11:36:45.785Z,67.79
2024-02-24T11:39:20.049Z,68.19
2024-02-24T11:41:57.011Z,68.00
2024-02-24T11:44:29.647Z,67.83
2024-02-24T11:47:04.168Z,67.79
2024-02-24T11:49:40.274Z,68.04
2024-02-24T11:52:12.714Z,67.56
2024-02-24T11:54:51.357Z,68.00
2024-02-24T11:57:25.204Z,67.92
2024-02-24T11:59:57.885Z,67.83
2024-02-24T12:02:30.379Z,68.15
2024-02-24T12:05:18.035Z,68.08
2024-02-24T12:07:51.065Z,68.24
2024-02-24T12:10:25.334Z,68.44
2024-02-24T12:12:57.943Z,68.59
2024-02-24T12:15:30.870Z,68.85
2024-02-24T12:18:04.091Z,69.14
2024-02-24T12:20:50.747Z,69.45
2024-02-24T12:23:25.314Z,69.34
2024-02-24T12:25:58.782Z,69.43
2024-02-24T12:28:32.523Z,69.39
2024-02-24T12:31:07.249Z,69.87
2024-02-24T12:33:44.250Z,70.27
2024-02-24T12:36:18.304Z,70.38
2024-02-24T12:38:52.638Z,69.95
2024-02-24T12:41:28.693Z,70.54
2024-02-24T12:44:04.354Z,70.72
2024-02-24T12:46:37.995Z,69.94
2024-02-24T12:49:10.900Z,69.84
2024-02-24T12:51:45.657Z,70.02
2024-02-24T12:54:17.525Z,69.88
2024-02-24T12:56:51.197Z,70.18
2024-02-24T12:59:24.930Z,69.88
2024-02-24T13:02:00.221Z,69.92
2024-02-24T13:04:33.308Z,70.29
2024-02-24T13:07:06.282Z,70.93
2024-02-24T13:09:38.943Z,70.68
2024-02-24T13:12:11.984Z,70.30
2024-02-24T13:14:44.611Z,70.14
2024-02-24T13:17:18.409Z,70.23
2024-02-24T13:19:53.080Z,70.24
2024-02-24T13:22:26.168Z,70.24
2024-02-24T13:24:58.591Z,70.24
2024-02-24T13:27:31.214Z,70.22
2024-02-24T13:30:04.938Z,70.15
2024-02-24T13:32:38.138Z,70.17
2024-02-24T13:35:11.671Z,70.35
2024-02-24T13:37:44.255Z,70.16
2024-02-24T13:40:17.573Z,69.67
2024-02-24T13:42:50.776Z,70.06
2024-02-24T13:45:23.749Z,69.94
2024-02-24T13:47:57.694Z,70.08
2024-02-24T13:50:31.074Z,70.28
2024-02-24T13:53:04.905Z,70.40
2024-02-24T13:55:38.043Z,70.93
2024-02-24T13:58:11.081Z,70.85
2024-02-24T14:00:44.888Z,70.56
2024-02-24T14:03:17.739Z,70.69
2024-02-24T14:05:50.553Z,70.82
2024-02-24T14:08:23.306Z,70.86
2024-02-24T14:10:56.451Z,70.84
2024-02-24T14:13:31.887Z,71.31
2024-02-24T14:16:05.947Z,71.09
2024-02-24T14:18:39.975Z,71.38
2024-02-24T14:21:13.726Z,71.21
2024-02-24T14:23:46.024Z,71.23
2024-02-24T14:26:19.118Z,71.38
2024-02-24T14:29:00.416Z,71.08
2024-02-24T14:31:28.270Z,71.10
2024-02-24T14:34:02.016Z,71.39
2024-02-24T14:36:35.325Z,71.31
2024-02-24T14:39:09.366Z,71.57
2024-02-24T14:41:43.185Z,71.63
2024-02-24T14:44:17.750Z,71.54
2024-02-24T14:46:58.543Z,71.65
2024-02-24T14:49:32.033Z,71.65
2024-02-24T14:52:06.871Z,71.56
2024-02-24T14:54:42.377Z,71.53
2024-02-24T14:57:13.844Z,71.61
2024-02-24T14:59:46.856Z,71.59
2024-02-24T15:02:29.887Z,71.73
2024-02-24T15:04:54.358Z,71.75
2024-02-24T15:07:27.260Z,71.69
2024-02-24T15:10:02.789Z,71.52
2024-02-24T15:12:35.995Z,71.47
2024-02-24T15:15:10.287Z,71.11
2024-02-24T15:17:42.839Z,71.29
2024-02-24T15:20:16.361Z,71.55
2024-02-24T15:22:49.816Z,71.52
2024-02-24T15:25:22.644Z,71.60
2024-02-24T15:27:56.841Z,71.92
2024-02-24T15:30:29.151Z,71.92
2024-02-24T15:33:04.607Z,71.76
2024-02-24T15:35:37.354Z,71.99
2024-02-24T15:38:10.455Z,72.06
2024-02-24T15:43:34.252Z,72.23
2024-02-24T15:46:11.419Z,72.47
2024-02-24T15:48:45.047Z,72.47
2024-02-24T15:51:18.709Z,72.47
2024-02-24T15:53:51.610Z,72.79
2024-02-24T15:56:25.116Z,72.85
2024-02-24T15:58:58.384Z,72.93
2024-02-24T16:01:31.304Z,73.04
2024-02-24T16:04:03.935Z,72.92
2024-02-24T16:06:36.294Z,73.09
2024-02-24T16:09:10.939Z,73.32
2024-02-24T16:11:44.155Z,73.50
2024-02-24T16:14:16.738Z,73.83
2024-02-24T16:16:48.981Z,73.89
2024-02-24T16:19:21.521Z,73.75
2024-02-24T16:21:54.097Z,73.80
2024-02-24T16:24:29.382Z,74.00
2024-02-24T16:27:01.680Z,74.15
2024-02-24T16:29:34.225Z,74.23
2024-02-24T16:32:09.687Z,74.26
2024-02-24T16:34:41.836Z,74.18
2024-02-24T16:37:14.146Z,74.45
2024-02-24T16:39:47.096Z,74.25
2024-02-24T16:42:20.145Z,74.49
2024-02-24T16:44:53.501Z,74.77
2024-02-24T16:47:27.882Z,74.48
2024-02-24T16:50:02.464Z,74.61
2024-02-24T16:52:35.453Z,74.69
2024-02-24T16:55:11.382Z,74.92
2024-02-24T16:57:44.107Z,74.83
2024-02-24T17:00:18.646Z,74.86
2024-02-24T17:02:51.851Z,74.98
2024-02-24T17:05:25.652Z,74.83
2024-02-24T17:08:00.122Z,74.62
2024-02-24T17:10:34.664Z,75.01
2024-02-24T17:13:11.881Z,75.12
2024-02-24T17:15:44.837Z,74.96
2024-02-24T17:18:23.909Z,74.79
2024-02-24T17:20:53.963Z,74.96
2024-02-24T17:23:27.004Z,75.10
2024-02-24T17:26:00.187Z,75.16
2024-02-24T17:28:53.285Z,75.27
2024-02-24T17:31:25.762Z,75.23
2024-02-24T17:33:58.043Z,75.22
2024-02-24T17:36:32.398Z,75.02
2024-02-24T17:39:05.235Z,75.02
2024-02-24T17:41:38.167Z,74.83
2024-02-24T17:44:12.394Z,75.00
2024-02-24T17:46:45.241Z,74.93
2024-02-24T17:49:18.530Z,74.97
2024-02-24T17:51:51.138Z,74.83
2024-02-24T17:54:24.855Z,74.28
2024-02-24T17:56:57.990Z,74.63
2024-02-24T17:59:31.015Z,74.23
2024-02-24T18:02:04.933Z,74.46
2024-02-24T18:04:40.169Z,74.51
2024-02-24T18:07:13.469Z,74.54
2024-02-24T18:09:47.879Z,74.73
2024-02-24T18:15:10.805Z,74.78
2024-02-24T18:17:43.916Z,74.93
2024-02-24T18:20:17.202Z,74.78
2024-02-24T18:22:49.475Z,74.71
2024-02-24T18:25:21.866Z,74.76
2024-02-24T18:27:54.177Z,74.93
2024-02-24T18:30:26.738Z,75.00
2024-02-24T18:32:59.320Z,75.04
2024-02-24T18:35:31.488Z,74.81
2024-02-24T18:38:04.056Z,74.93
2024-02-24T18:40:36.647Z,74.74
2024-02-24T18:43:09.397Z,74.80
2024-02-24T18:45:44.469Z,74.39
2024-02-24T18:48:17.622Z,74.59
2024-02-24T18:50:49.970Z,74.59
2024-02-24T18:53:22.656Z,74.41
2024-02-24T18:55:55.563Z,74.43
2024-02-24T18:58:31.841Z,74.21
2024-02-24T19:01:04.859Z,74.26
2024-02-24T19:03:38.761Z,74.28
2024-02-24T19:06:12.768Z,74.45
2024-02-24T19:08:46.444Z,73.88
2024-02-24T19:11:19.178Z,73.55
2024-02-24T19:13:51.511Z,73.58
2024-02-24T19:16:23.952Z,73.40
2024-02-24T19:18:56.766Z,73.52
2024-02-24T19:21:29.724Z,73.78
2024-02-24T19:24:02.096Z,73.79
2024-02-24T19:26:35.219Z,73.85
2024-02-24T19:29:15.535Z,73.79
2024-02-24T19:31:48.034Z,73.88
2024-02-24T19:34:21.097Z,73.77
2024-02-24T19:36:53.590Z,73.40
2024-02-24T19:39:26.492Z,73.56
2024-02-24T19:42:00.076Z,73.42
2024-02-24T19:44:32.915Z,73.36
2024-02-24T19:47:07.210Z,73.40
2024-02-24T19:49:38.989Z,73.20
2024-02-24T19:52:11.089Z,73.30
2024-02-24T19:54:48.206Z,73.00
2024-02-24T19:57:21.906Z,72.93
2024-02-24T19:59:55.039Z,73.08
2024-02-24T20:02:28.549Z,72.96
2024-02-24T20:05:00.203Z,73.15
2024-02-24T20:07:32.337Z,72.97
2024-02-24T20:10:04.179Z,72.99
2024-02-24T20:12:36.328Z,73.00
2024-02-24T20:15:08.441Z,72.99
2024-02-24T20:17:40.261Z,72.74
2024-02-24T20:20:12.772Z,72.70
2024-02-24T20:22:44.224Z,72.15
2024-02-24T20:25:16.263Z,72.37
2024-02-24T20:27:47.945Z,72.16
2024-02-24T20:30:22.748Z,72.08
2024-02-24T20:32:54.607Z,71.94
2024-02-24T20:35:27.935Z,71.49
2024-02-24T20:37:59.778Z,71.45
2024-02-24T20:40:31.437Z,71.11
2024-02-24T20:43:03.113Z,70.78
2024-02-24T20:45:34.669Z,70.52
2024-02-24T20:48:06.873Z,70.43
2024-02-24T20:50:39.053Z,70.23
2024-02-24T20:53:11.018Z,70.25
2024-02-24T20:55:42.800Z,69.84
2024-02-24T20:58:14.706Z,69.47
2024-02-24T21:00:47.134Z,68.74
2024-02-24T21:03:19.399Z,68.54
2024-02-24T21:05:50.980Z,68.78
2024-02-24T21:08:22.825Z,68.28
2024-02-24T21:10:54.478Z,68.37
2024-02-24T21:13:26.181Z,68.19
2024-02-24T21:15:57.974Z,68.05
2024-02-24T21:18:30.175Z,68.18
2024-02-24T21:21:02.022Z,68.11
2024-02-24T21:23:35.028Z,67.52
2024-02-24T21:26:10.353Z,67.39
2024-02-24T21:28:42.000Z,67.15
2024-02-24T21:31:13.523Z,67.10
2024-02-24T21:33:45.881Z,66.47
2024-02-24T21:36:19.090Z,66.37
2024-02-24T21:38:51.253Z,65.91
2024-02-24T21:41:23.055Z,66.07
2024-02-24T21:43:55.087Z,65.99
2024-02-24T21:46:27.688Z,66.09
2024-02-24T21:48:59.371Z,65.97
2024-02-24T21:51:30.871Z,65.68
2024-02-24T21:54:04.400Z,65.76
2024-02-24T21:56:36.232Z,65.77
2024-02-24T21:59:07.950Z,65.91
2024-02-24T22:01:39.410Z,65.71
2024-02-24T22:04:13.357Z,65.54
2024-02-24T22:06:46.195Z,65.30
2024-02-24T22:09:19.032Z,65.38
2024-02-24T22:11:51.917Z,65.18
2024-02-24T22:14:24.536Z,64.85
2024-02-24T22:16:57.319Z,64.95
2024-02-24T22:19:31.480Z,64.91
2024-02-24T22:22:03.798Z,65.15
2024-02-24T22:24:37.027Z,65.46
2024-02-24T22:27:09.816Z,65.90
2024-02-24T22:29:43.485Z,65.95
2024-02-24T22:32:16.254Z,66.33
2024-02-24T22:34:48.759Z,66.31
2024-02-24T22:37:21.689Z,66.48
2024-02-24T22:39:54.273Z,67.18
2024-02-24T22:42:27.470Z,67.37
2024-02-24T22:45:00.265Z,67.47
2024-02-24T22:47:35.067Z,67.93
2024-02-24T22:50:08.289Z,68.16
2024-02-24T22:52:40.628Z,68.26
2024-02-24T22:55:13.874Z,68.51
2024-02-24T22:57:47.630Z,68.52
2024-02-24T23:00:22.275Z,68.45
2024-02-24T23:02:54.892Z,68.88
2024-02-24T23:05:27.940Z,69.12
2024-02-24T23:08:00.143Z,69.39
2024-02-24T23:10:32.801Z,69.89
2024-02-24T23:13:05.176Z,70.14
2024-02-24T23:15:37.656Z,70.49
2024-02-24T23:18:10.219Z,70.79
2024-02-24T23:20:42.846Z,70.96
2024-02-24T23:23:17.253Z,71.22
2024-02-24T23:25:50.318Z,71.34
2024-02-24T23:28:23.107Z,71.37
2024-02-24T23:30:56.228Z,71.92
2024-02-24T23:33:28.863Z,72.15
2024-02-24T23:36:01.549Z,72.28
2024-02-24T23:38:34.133Z,72.22
2024-02-24T23:41:07.307Z,72.67
2024-02-24T23:43:40.646Z,73.00
2024-02-24T23:46:14.526Z,73.36
2024-02-24T23:48:48.127Z,73.61
2024-02-24T23:51:20.373Z,73.72
2024-02-24T23:53:53.115Z,74.05
2024-02-24T23:56:26.267Z,74.17
2024-02-24T23:58:59.061Z,74.55
